aviador You're here:

KAFN Decoded Metar

JAFFREY in NH, USA
Report Time2018-05-21 19:52:00
UTC Time2018-05-21 20:12:05
Flight Rules vfr VFR
Wind310° at 10 Gusting to 16 kt
W.Decomp.*RWY 34: 9.6 kt HW 2.8 kt LCW
W.Rank310° ranks 16
Current wind is above 310° avg. (7.4)
Visibility9999 m
Phenomena:N/A
Clouds:N/A
Expected CloudBase > 8,800 ft AGL from Temp-Dew spread
CeilingNone
Temp24°C (ISA +11)
Dew Point02°C (24% RH)
AAT18.8°C
QNH1020 hPa
Density Alt2,172 ft
Elevation1,027 ft
Report Wrong Elevation
Raw Report
KAFN 211952Z AUTO 31010G16KT 270V360 10SM CLR 24/02 A3011 RMK AO2
SLP197 T02440022=

Extra information for KAFN:More info

Metar Taf Metar & Taf Last 4 Metars F.Rules Stats Wind Profile Meteogram Temp Stats Airport Information Weather charts Add Link Nearby VenuesMetar ALERT Operation Metar Decoded Social comments

AIRNAV info for KAFN